| time (UTC) | temp F | wind direction | speed MPH | gust MPH | rain 1hr in | rain 24hr in | rain mn in | humidity % | barometer mb |
| 20260509223022 | 55 | 202 | 2.0 | 6.0 | 0.00 | 0.05 | 0.04 | 85 | 1006.6 |
| 20260509221528 | 55 | 249 | 2.0 | 6.0 | 0.00 | 0.05 | 0.04 | 86 | 1006.5 |
| 20260509220011 | 54 | 216 | 2.0 | 5.0 | 0.00 | 0.05 | 0.04 | 87 | 1006.6 |
| 20260509214515 | 54 | 215 | 4.0 | 8.0 | 0.00 | 0.05 | 0.04 | 87 | 1006.9 |
| 20260509213020 | 53 | 221 | 3.0 | 9.0 | 0.00 | 0.05 | 0.04 | 1007.0 | |
| 20260509211527 | 53 | 195 | 3.0 | 5.0 | 0.00 | 0.05 | 0.04 | 88 | 1007.1 |
| 20260509210008 | 53 | 208 | 3.0 | 10.0 | 0.00 | 0.05 | 0.04 | 88 | 1007.2 |
| 20260509204513 | 52 | 214 | 2.0 | 6.0 | 0.00 | 0.05 | 0.04 | 89 | 1007.3 |
| 20260509203023 | 52 | 195 | 3.0 | 8.0 | 0.01 | 0.05 | 0.04 | 89 | 1007.4 |
| 20260509201520 | 52 | 197 | 3.0 | 8.0 | 0.01 | 0.06 | 0.04 | 90 | 1007.5 |
| 20260509200026 | 52 | 272 | 2.0 | 9.0 | 0.01 | 0.06 | 0.04 | 90 | 1007.6 |
| 20260509194511 | 52 | 134 | 2.0 | 8.0 | 0.01 | 0.06 | 0.04 | 90 | 1007.7 |
| 20260509193013 | 52 | 174 | 2.0 | 5.0 | 0.00 | 0.05 | 0.03 | 90 | 1007.9 |
| 20260509191521 | 52 | 230 | 3.0 | 6.0 | 0.00 | 0.05 | 0.03 | 88 | 1008.0 |
| 20260509190022 | 52 | 224 | 3.0 | 8.0 | 0.00 | 0.05 | 0.03 | 88 | 1008.0 |
| 20260509184530 | 52 | 209 | 4.0 | 7.0 | 0.00 | 0.05 | 0.03 | 88 | 1008.1 |
| 20260509183015 | 52 | 206 | 3.0 | 8.0 | 0.00 | 0.05 | 0.03 | 88 | 1008.0 |
| 20260509181515 | 51 | 227 | 3.0 | 8.0 | 0.00 | 0.05 | 0.03 | 89 | 1008.0 |
| 20260509180021 | 51 | 240 | 2.0 | 5.0 | 0.00 | 0.05 | 0.03 | 90 | 1008.1 |
| 20260509174526 | 51 | 248 | 2.0 | 5.0 | 0.00 | 0.05 | 0.03 | 90 | 1008.0 |
| 20260509173025 | 51 | 226 | 4.0 | 11.0 | 0.01 | 0.05 | 0.03 | 89 | 1008.0 |
| 20260509171516 | 51 | 198 | 3.0 | 7.0 | 0.01 | 0.05 | 0.03 | 89 | 1008.0 |
| 20260509170022 | 52 | 212 | 2.0 | 9.0 | 0.01 | 0.05 | 0.03 | 89 | 1008.0 |
| 20260509164523 | 52 | 186 | 2.0 | 5.0 | 0.01 | 0.05 | 0.03 | 90 | 1008.0 |
| 20260509163027 | 52 | 241 | 0.0 | 2.0 | 0.00 | 0.05 | 0.02 | 90 | 1008.1 |
| 20260509161525 | 51 | 223 | 1.0 | 3.0 | 0.00 | 0.05 | 0.02 | 90 | 1008.4 |
| 20260509160020 | 51 | 209 | 4.0 | 8.0 | 0.00 | 0.05 | 0.02 | 89 | 1008.4 |
| 20260509154523 | 51 | 210 | 1.0 | 6.0 | 0.00 | 0.05 | 0.02 | 92 | 1008.6 |
| 20260509153028 | 50 | 162 | 2.0 | 5.0 | 0.00 | 0.05 | 0.02 | 93 | 1008.8 |
| 20260509151526 | 49 | 147 | 1.0 | 5.0 | 0.00 | 0.05 | 0.02 | 94 | 1009.1 |
| 20260509150016 | 49 | 172 | 1.0 | 2.0 | 0.00 | 0.05 | 0.02 | 95 | 1009.1 |
| 20260509144529 | 48 | 41 | 0.0 | 2.0 | 0.00 | 0.05 | 0.02 | 95 | 1009.2 |
| 20260509143026 | 48 | 359 | 0.0 | 3.0 | 0.00 | 0.05 | 0.02 | 95 | 1009.2 |
| 20260509141526 | 47 | 338 | 2.0 | 4.0 | 0.00 | 0.05 | 0.02 | 95 | 1009.3 |
| 20260509140028 | 46 | 341 | 0.0 | 0.0 | 0.01 | 0.05 | 0.02 | 95 | 1009.3 |
| 20260509134519 | 46 | 56 | 1.0 | 2.0 | 0.01 | 0.05 | 0.02 | 95 | 1009.3 |
| 20260509133026 | 45 | 58 | 0.0 | 3.0 | 0.01 | 0.05 | 0.02 | 95 | 1009.4 |
| 20260509131525 | 45 | 53 | 0.0 | 2.0 | 0.01 | 0.05 | 0.02 | 95 | 1009.5 |
| 20260509130047 | 44 | 90 | 1.0 | 3.0 | 0.00 | 0.04 | 0.01 | 95 | 1009.5 |
| 20260509124529 | 44 | 301 | 0.0 | 0.0 | 0.00 | 0.04 | 0.01 | 95 | 1009.7 |
| 20260509123022 | 43 | 34 | 0.0 | 0.0 | 0.00 | 0.04 | 0.01 | 95 | 1009.7 |
| 20260509121529 | 42 | 11 | 0.0 | 0.0 | 0.00 | 0.04 | 0.01 | 94 | 1009.8 |
| 20260509120032 | 41 | 11 | 0.0 | 0.0 | 0.00 | 0.04 | 0.01 | 94 | 1009.8 |
| 20260509114527 | 41 | 27 | 0.0 | 0.0 | 0.00 | 0.04 | 0.01 | 94 | 1009.9 |
| 20260509113029 | 41 | 27 | 0.0 | 0.0 | 0.00 | 0.04 | 0.01 | 94 | 1009.7 |
| 20260509111520 | 40 | 18 | 0.0 | 0.0 | 0.00 | 0.05 | 0.01 | 94 | 1009.8 |
| 20260509110025 | 40 | 360 | 0.0 | 0.0 | 0.00 | 0.05 | 0.01 | 94 | 1009.8 |
| 20260509104528 | 40 | 360 | 0.0 | 0.0 | 0.00 | 0.05 | 0.01 | 93 | 1009.8 |
| 20260509103027 | 40 | 360 | 0.0 | 0.0 | 0.00 | 0.05 | 0.01 | 93 | 1009.7 |
| 20260509101532 | 39 | 27 | 0.0 | 0.0 | 0.00 | 0.05 | 0.01 | 93 | 1009.4 |
| 20260509100025 | 39 | 27 | 0.0 | 0.0 | 0.00 | 0.05 | 0.01 | 92 | 1009.6 |
| 20260509094524 | 39 | 42 | 0.0 | 0.0 | 0.00 | 0.05 | 0.01 | 91 | 1009.5 |
| 20260509093026 | 39 | 42 | 0.0 | 0.0 | 0.00 | 0.05 | 0.01 | 91 | 1009.6 |
| 20260509091528 | 39 | 42 | 0.0 | 0.0 | 0.00 | 0.05 | 0.01 | 90 | 1009.6 |
| 20260509090030 | 39 | 42 | 0.0 | 0.0 | 0.00 | 0.05 | 0.01 | 89 | 1009.8 |
| 20260509084532 | 39 | 42 | 0.0 | 0.0 | 0.00 | 0.05 | 0.01 | 90 | 1009.9 |
| 20260509083020 | 39 | 41 | 0.0 | 0.0 | 0.01 | 0.05 | 0.01 | 89 | 1010.2 |
| 20260509081516 | 39 | 41 | 0.0 | 0.0 | 0.01 | 0.05 | 0.01 | 89 | 1010.3 |
| 20260509080032 | 39 | 41 | 0.0 | 0.0 | 0.01 | 0.05 | 0.01 | 88 | 1010.2 |
| 20260509074525 | 39 | 32 | 0.0 | 0.0 | 0.01 | 0.05 | 0.01 | 88 | 1010.3 |
| 20260509073025 | 39 | 56 | 0.0 | 0.0 | 0.00 | 0.04 | 0.00 | 89 | 1010.3 |
| 20260509071510 | 39 | 56 | 0.0 | 0.0 | 0.00 | 0.04 | 0.00 | 89 | 1010.2 |
| 20260509070016 | 39 | 56 | 0.0 | 0.0 | 0.00 | 0.04 | 0.00 | 88 | 1010.1 |
| 20260509064524 | 39 | 51 | 0.0 | 2.0 | 0.00 | 0.04 | 0.00 | 88 | 1010.3 |
| 20260509063025 | 39 | 51 | 0.0 | 2.0 | 0.00 | 0.04 | 0.00 | 87 | 1010.4 |
| 20260509061528 | 38 | 39 | 0.0 | 2.0 | 0.00 | 0.04 | 0.00 | 87 | 1010.7 |
| 20260509060014 | 38 | 39 | 0.0 | 2.0 | 0.00 | 0.04 | 0.00 | 88 | 1011.0 |
| 20260509054520 | 38 | 39 | 0.0 | 2.0 | 0.00 | 0.04 | 0.00 | 87 | 1010.9 |
| 20260509053030 | 38 | 33 | 0.0 | 3.0 | 0.00 | 0.04 | 0.00 | 88 | 1011.0 |
| 20260509051523 | 37 | 32 | 0.0 | 0.0 | 0.00 | 0.04 | 0.00 | 88 | 1011.1 |
| 20260509050012 | 37 | 32 | 0.0 | 0.0 | 0.00 | 0.04 | 0.00 | 87 | 1011.3 |
| 20260509044514 | 37 | 32 | 0.0 | 0.0 | 0.00 | 0.04 | 0.00 | 87 | 1011.4 |
| 20260509043023 | 37 | 32 | 0.0 | 0.0 | 0.00 | 0.04 | 0.00 | 88 | 1011.4 |
| 20260509041525 | 37 | 32 | 0.0 | 0.0 | 0.00 | 0.04 | 0.00 | 88 | 1011.4 |
| 20260509040028 | 37 | 32 | 0.0 | 0.0 | 0.00 | 0.05 | 0.00 | 86 | 1011.5 |
| 20260509034514 | 38 | 30 | 0.0 | 0.0 | 0.00 | 0.05 | 0.05 | 86 | 1011.4 |
| 20260509033018 | 39 | 30 | 0.0 | 0.0 | 0.00 | 0.05 | 0.05 | 84 | 1011.4 |
| 20260509031524 | 39 | 30 | 0.0 | 0.0 | 0.00 | 0.05 | 0.05 | 83 | 1011.5 |
| 20260509030034 | 40 | 30 | 0.0 | 0.0 | 0.00 | 0.05 | 0.05 | 81 | 1011.6 |
| 20260509024526 | 41 | 52 | 0.0 | 0.0 | 0.00 | 0.05 | 0.05 | 80 | 1011.4 |
| 20260509023025 | 42 | 52 | 0.0 | 0.0 | 0.00 | 0.05 | 0.05 | 78 | 1011.5 |
| 20260509021520 | 42 | 52 | 0.0 | 0.0 | 0.00 | 0.05 | 0.05 | 77 | 1011.6 |
| 20260509020022 | 44 | 52 | 0.0 | 0.0 | 0.01 | 0.05 | 0.05 | 75 | 1011.6 |
| 20260509014524 | 45 | 44 | 0.0 | 0.0 | 0.01 | 0.05 | 0.05 | 72 | 1011.4 |
| 20260509013026 | 45 | 57 | 0.0 | 0.0 | 0.01 | 0.05 | 0.05 | 71 | 1011.3 |
| 20260509011516 | 46 | 57 | 0.0 | 0.0 | 0.01 | 0.05 | 0.05 | 69 | 1011.1 |
| 20260509010021 | 47 | 57 | 0.0 | 0.0 | 0.00 | 0.04 | 0.04 | 67 | 1010.7 |
| 20260509004535 | 48 | 55 | 1.0 | 3.0 | 0.00 | 0.04 | 0.04 | 64 | 1010.4 |
| 20260509003026 | 48 | 4 | 0.0 | 2.0 | 0.00 | 0.04 | 0.04 | 64 | 1010.4 |
| 20260509001528 | 50 | 360 | 0.0 | 2.0 | 0.00 | 0.04 | 0.04 | 62 | 1010.1 |
| 20260509000031 | 53 | 360 | 0.0 | 2.0 | 0.00 | 0.04 | 0.04 | 50 | 1010.1 |
| 20260508234527 | 53 | 360 | 1.0 | 3.0 | 0.00 | 0.04 | 0.04 | 46 | 1009.9 |
| 20260508233028 | 54 | 3 | 2.0 | 3.0 | 0.00 | 0.04 | 0.04 | 46 | 1009.8 |
| 20260508231512 | 54 | 336 | 1.0 | 5.0 | 0.00 | 0.04 | 0.04 | 44 | 1009.7 |
| 20260508230018 | 54 | 359 | 1.0 | 6.0 | 0.00 | 0.04 | 0.04 | 45 | 1009.6 |
| 20260508224523 | 55 | 246 | 1.0 | 7.0 | 0.00 | 0.04 | 0.04 | 43 | 1009.7 |